Terminal Aerodrome Forecast
Issued by NWS

Home | Current Version | Previous Version | Text Only | Print | Product List | Glossary On
Versions: 1 2 3 4 5 6 7 8 9 10 11 12 13 14 15 16 17 18 19 20 21 22 23 24 25 26 27
000
FTUS43 KABR 251700
TAFATY
TAF
KATY 251727Z 2518/2618 03008KT 2SM -SN BR OVC035
     FM252100 01012KT P6SM OVC030
     FM260300 36012KT 2SM -SN OVC025
     FM261200 36012KT P6SM OVC025=

USA.gov is the U.S. government's official web portal to all federal, state and local government web resources and services.